sensor_id;sensor_type;location;lat;lon;timestamp;P1;durP1;ratioP1;P2;durP2;ratioP2
61038;SDS011;46919;45.816;3.104;2023-08-06T00:00:18;6.45;;;1.52;;
61038;SDS011;46919;45.816;3.104;2023-08-06T00:02:43;8.18;;;1.80;;
61038;SDS011;46919;45.816;3.104;2023-08-06T00:05:09;6.88;;;1.30;;
61038;SDS011;46919;45.816;3.104;2023-08-06T00:07:34;13.95;;;1.75;;
61038;SDS011;46919;45.816;3.104;2023-08-06T00:10:00;11.38;;;1.73;;
61038;SDS011;46919;45.816;3.104;2023-08-06T00:12:25;9.43;;;1.75;;
61038;SDS011;46919;45.816;3.104;2023-08-06T00:14:51;8.50;;;1.67;;
61038;SDS011;46919;45.816;3.104;2023-08-06T00:17:17;7.10;;;1.70;;
61038;SDS011;46919;45.816;3.104;2023-08-06T00:19:43;8.45;;;1.50;;
61038;SDS011;46919;45.816;3.104;2023-08-06T00:22:08;9.45;;;2.00;;
61038;SDS011;46919;45.816;3.104;2023-08-06T00:24:34;8.57;;;2.13;;
61038;SDS011;46919;45.816;3.104;2023-08-06T00:27:00;10.32;;;1.80;;
61038;SDS011;46919;45.816;3.104;2023-08-06T00:29:26;12.63;;;2.22;;
61038;SDS011;46919;45.816;3.104;2023-08-06T00:31:51;11.60;;;2.10;;
61038;SDS011;46919;45.816;3.104;2023-08-06T00:34:17;10.05;;;1.92;;
61038;SDS011;46919;45.816;3.104;2023-08-06T00:36:42;12.85;;;2.10;;
61038;SDS011;46919;45.816;3.104;2023-08-06T00:39:07;10.90;;;1.90;;
61038;SDS011;46919;45.816;3.104;2023-08-06T00:41:33;13.73;;;2.00;;
61038;SDS011;46919;45.816;3.104;2023-08-06T00:43:58;10.45;;;1.90;;
61038;SDS011;46919;45.816;3.104;2023-08-06T00:46:23;13.32;;;2.00;;
61038;SDS011;46919;45.816;3.104;2023-08-06T00:48:49;12.20;;;1.98;;
61038;SDS011;46919;45.816;3.104;2023-08-06T00:51:16;6.68;;;1.80;;
61038;SDS011;46919;45.816;3.104;2023-08-06T00:53:41;7.88;;;1.65;;
61038;SDS011;46919;45.816;3.104;2023-08-06T00:56:08;10.05;;;1.95;;
61038;SDS011;46919;45.816;3.104;2023-08-06T00:58:34;13.88;;;2.15;;
61038;SDS011;46919;45.816;3.104;2023-08-06T01:01:01;7.45;;;1.77;;
61038;SDS011;46919;45.816;3.104;2023-08-06T01:03:27;13.73;;;1.70;;
61038;SDS011;46919;45.816;3.104;2023-08-06T01:05:53;9.60;;;1.77;;
61038;SDS011;46919;45.816;3.104;2023-08-06T01:14:15;7.72;;;1.80;;
61038;SDS011;46919;45.816;3.104;2023-08-06T01:16:43;7.57;;;1.80;;
61038;SDS011;46919;45.816;3.104;2023-08-06T01:19:18;8.98;;;1.45;;
61038;SDS011;46919;45.816;3.104;2023-08-06T01:21:44;9.15;;;2.30;;
61038;SDS011;46919;45.816;3.104;2023-08-06T01:24:09;9.63;;;2.05;;
61038;SDS011;46919;45.816;3.104;2023-08-06T01:29:27;14.48;;;1.90;;
61038;SDS011;46919;45.816;3.104;2023-08-06T01:31:56;10.02;;;1.90;;
61038;SDS011;46919;45.816;3.104;2023-08-06T01:34:24;14.32;;;2.35;;
61038;SDS011;46919;45.816;3.104;2023-08-06T01:36:52;10.65;;;2.40;;
61038;SDS011;46919;45.816;3.104;2023-08-06T01:39:18;10.95;;;2.38;;
61038;SDS011;46919;45.816;3.104;2023-08-06T01:41:47;11.00;;;2.22;;
61038;SDS011;46919;45.816;3.104;2023-08-06T01:44:13;10.02;;;2.03;;
61038;SDS011;46919;45.816;3.104;2023-08-06T01:46:40;9.90;;;2.00;;
61038;SDS011;46919;45.816;3.104;2023-08-06T01:49:05;13.95;;;2.10;;
61038;SDS011;46919;45.816;3.104;2023-08-06T01:51:32;8.40;;;2.13;;
61038;SDS011;46919;45.816;3.104;2023-08-06T01:53:58;9.75;;;1.70;;
61038;SDS011;46919;45.816;3.104;2023-08-06T01:56:23;11.23;;;2.00;;
61038;SDS011;46919;45.816;3.104;2023-08-06T01:58:49;11.52;;;1.83;;
61038;SDS011;46919;45.816;3.104;2023-08-06T02:01:14;12.82;;;1.90;;
61038;SDS011;46919;45.816;3.104;2023-08-06T02:03:39;10.20;;;2.28;;
61038;SDS011;46919;45.816;3.104;2023-08-06T02:06:05;13.02;;;2.50;;
61038;SDS011;46919;45.816;3.104;2023-08-06T02:08:30;10.13;;;2.00;;
61038;SDS011;46919;45.816;3.104;2023-08-06T02:10:56;8.55;;;1.67;;
61038;SDS011;46919;45.816;3.104;2023-08-06T02:13:22;10.68;;;2.15;;
61038;SDS011;46919;45.816;3.104;2023-08-06T02:15:48;8.77;;;1.77;;
61038;SDS011;46919;45.816;3.104;2023-08-06T02:18:13;12.52;;;2.30;;
61038;SDS011;46919;45.816;3.104;2023-08-06T02:20:40;11.18;;;2.00;;
61038;SDS011;46919;45.816;3.104;2023-08-06T02:23:05;12.18;;;2.08;;
61038;SDS011;46919;45.816;3.104;2023-08-06T02:25:31;9.70;;;2.15;;
61038;SDS011;46919;45.816;3.104;2023-08-06T02:27:56;7.15;;;1.75;;
61038;SDS011;46919;45.816;3.104;2023-08-06T02:30:22;8.90;;;2.17;;
61038;SDS011;46919;45.816;3.104;2023-08-06T02:32:47;8.82;;;1.80;;
61038;SDS011;46919;45.816;3.104;2023-08-06T02:35:13;11.43;;;1.92;;
61038;SDS011;46919;45.816;3.104;2023-08-06T02:37:38;8.02;;;1.90;;
61038;SDS011;46919;45.816;3.104;2023-08-06T02:40:04;10.35;;;1.80;;
61038;SDS011;46919;45.816;3.104;2023-08-06T02:42:29;9.27;;;2.00;;
61038;SDS011;46919;45.816;3.104;2023-08-06T02:44:55;9.27;;;1.70;;
61038;SDS011;46919;45.816;3.104;2023-08-06T02:47:21;11.43;;;2.38;;
61038;SDS011;46919;45.816;3.104;2023-08-06T02:49:46;9.95;;;2.25;;
61038;SDS011;46919;45.816;3.104;2023-08-06T02:52:12;7.40;;;1.83;;
61038;SDS011;46919;45.816;3.104;2023-08-06T02:54:37;11.95;;;1.80;;
61038;SDS011;46919;45.816;3.104;2023-08-06T02:57:03;11.40;;;2.30;;
61038;SDS011;46919;45.816;3.104;2023-08-06T02:59:29;12.27;;;1.77;;
61038;SDS011;46919;45.816;3.104;2023-08-06T03:01:55;11.55;;;2.00;;
61038;SDS011;46919;45.816;3.104;2023-08-06T03:04:21;9.98;;;1.63;;
61038;SDS011;46919;45.816;3.104;2023-08-06T03:06:46;9.05;;;1.90;;
61038;SDS011;46919;45.816;3.104;2023-08-06T03:09:11;11.13;;;1.98;;
61038;SDS011;46919;45.816;3.104;2023-08-06T03:11:37;9.18;;;1.90;;
61038;SDS011;46919;45.816;3.104;2023-08-06T03:14:02;9.98;;;1.85;;
61038;SDS011;46919;45.816;3.104;2023-08-06T03:16:28;7.63;;;1.50;;
61038;SDS011;46919;45.816;3.104;2023-08-06T03:18:53;8.02;;;1.70;;
61038;SDS011;46919;45.816;3.104;2023-08-06T03:21:18;6.68;;;1.48;;
61038;SDS011;46919;45.816;3.104;2023-08-06T03:23:46;10.43;;;1.73;;
61038;SDS011;46919;45.816;3.104;2023-08-06T03:26:13;7.20;;;1.50;;
61038;SDS011;46919;45.816;3.104;2023-08-06T03:28:39;8.25;;;1.45;;
61038;SDS011;46919;45.816;3.104;2023-08-06T03:31:04;9.55;;;1.80;;
61038;SDS011;46919;45.816;3.104;2023-08-06T03:33:29;10.95;;;2.00;;
61038;SDS011;46919;45.816;3.104;2023-08-06T03:35:55;8.40;;;1.50;;
61038;SDS011;46919;45.816;3.104;2023-08-06T03:38:21;8.40;;;1.83;;
61038;SDS011;46919;45.816;3.104;2023-08-06T03:40:47;10.45;;;2.03;;
61038;SDS011;46919;45.816;3.104;2023-08-06T03:43:13;9.43;;;1.73;;
61038;SDS011;46919;45.816;3.104;2023-08-06T03:45:40;10.48;;;1.70;;
61038;SDS011;46919;45.816;3.104;2023-08-06T03:48:05;8.57;;;1.63;;
61038;SDS011;46919;45.816;3.104;2023-08-06T03:50:31;10.90;;;1.65;;
61038;SDS011;46919;45.816;3.104;2023-08-06T03:52:56;7.22;;;1.65;;
61038;SDS011;46919;45.816;3.104;2023-08-06T03:55:22;8.30;;;1.20;;
61038;SDS011;46919;45.816;3.104;2023-08-06T03:57:47;4.82;;;1.23;;
61038;SDS011;46919;45.816;3.104;2023-08-06T04:00:13;8.15;;;1.38;;
61038;SDS011;46919;45.816;3.104;2023-08-06T04:02:38;5.05;;;1.17;;
61038;SDS011;46919;45.816;3.104;2023-08-06T04:05:04;4.60;;;1.23;;
61038;SDS011;46919;45.816;3.104;2023-08-06T04:07:29;7.43;;;1.25;;
61038;SDS011;46919;45.816;3.104;2023-08-06T04:09:56;7.57;;;1.38;;
61038;SDS011;46919;45.816;3.104;2023-08-06T04:12:24;4.53;;;1.05;;
61038;SDS011;46919;45.816;3.104;2023-08-06T04:14:49;6.05;;;1.23;;
61038;SDS011;46919;45.816;3.104;2023-08-06T04:17:17;4.18;;;1.17;;
61038;SDS011;46919;45.816;3.104;2023-08-06T04:19:45;8.48;;;1.60;;
61038;SDS011;46919;45.816;3.104;2023-08-06T04:22:15;14.98;;;1.23;;
61038;SDS011;46919;45.816;3.104;2023-08-06T04:24:41;5.88;;;1.10;;
61038;SDS011;46919;45.816;3.104;2023-08-06T04:27:08;6.38;;;1.02;;
61038;SDS011;46919;45.816;3.104;2023-08-06T04:29:34;6.70;;;1.13;;
61038;SDS011;46919;45.816;3.104;2023-08-06T04:31:59;5.07;;;1.10;;
61038;SDS011;46919;45.816;3.104;2023-08-06T04:34:24;5.28;;;1.15;;
61038;SDS011;46919;45.816;3.104;2023-08-06T04:36:50;4.97;;;0.98;;
61038;SDS011;46919;45.816;3.104;2023-08-06T04:39:15;5.18;;;1.35;;
61038;SDS011;46919;45.816;3.104;2023-08-06T04:41:41;10.55;;;1.48;;
61038;SDS011;46919;45.816;3.104;2023-08-06T04:44:06;4.07;;;0.80;;
61038;SDS011;46919;45.816;3.104;2023-08-06T04:46:31;5.63;;;1.10;;
61038;SDS011;46919;45.816;3.104;2023-08-06T04:48:57;8.80;;;1.52;;
61038;SDS011;46919;45.816;3.104;2023-08-06T04:51:22;5.93;;;1.10;;
61038;SDS011;46919;45.816;3.104;2023-08-06T04:53:47;5.50;;;1.40;;
61038;SDS011;46919;45.816;3.104;2023-08-06T04:56:13;2.50;;;1.00;;
61038;SDS011;46919;45.816;3.104;2023-08-06T04:58:38;6.07;;;1.25;;
61038;SDS011;46919;45.816;3.104;2023-08-06T05:01:04;5.22;;;0.85;;
61038;SDS011;46919;45.816;3.104;2023-08-06T05:03:29;6.25;;;1.15;;
61038;SDS011;46919;45.816;3.104;2023-08-06T05:05:54;3.75;;;1.00;;
61038;SDS011;46919;45.816;3.104;2023-08-06T05:08:20;3.63;;;1.00;;
61038;SDS011;46919;45.816;3.104;2023-08-06T05:10:45;7.22;;;1.60;;
61038;SDS011;46919;45.816;3.104;2023-08-06T05:13:11;6.45;;;1.23;;
61038;SDS011;46919;45.816;3.104;2023-08-06T05:15:37;6.20;;;1.48;;
61038;SDS011;46919;45.816;3.104;2023-08-06T05:18:02;5.15;;;1.13;;
61038;SDS011;46919;45.816;3.104;2023-08-06T05:20:28;3.83;;;1.10;;
61038;SDS011;46919;45.816;3.104;2023-08-06T05:22:53;6.40;;;1.33;;
61038;SDS011;46919;45.816;3.104;2023-08-06T05:25:19;7.82;;;1.38;;
61038;SDS011;46919;45.816;3.104;2023-08-06T05:27:45;7.35;;;1.30;;
61038;SDS011;46919;45.816;3.104;2023-08-06T05:30:11;6.32;;;1.38;;
61038;SDS011;46919;45.816;3.104;2023-08-06T05:32:36;5.45;;;1.00;;
61038;SDS011;46919;45.816;3.104;2023-08-06T05:35:02;4.40;;;1.15;;
61038;SDS011;46919;45.816;3.104;2023-08-06T05:37:27;4.20;;;0.90;;
61038;SDS011;46919;45.816;3.104;2023-08-06T05:39:53;7.78;;;1.80;;
61038;SDS011;46919;45.816;3.104;2023-08-06T05:42:18;4.65;;;1.27;;
61038;SDS011;46919;45.816;3.104;2023-08-06T05:44:44;6.35;;;1.25;;
61038;SDS011;46919;45.816;3.104;2023-08-06T05:47:09;8.05;;;1.80;;
61038;SDS011;46919;45.816;3.104;2023-08-06T05:49:34;5.45;;;1.20;;
61038;SDS011;46919;45.816;3.104;2023-08-06T05:52:00;5.65;;;1.27;;
61038;SDS011;46919;45.816;3.104;2023-08-06T05:54:25;4.40;;;1.15;;
61038;SDS011;46919;45.816;3.104;2023-08-06T05:56:51;7.70;;;1.20;;
61038;SDS011;46919;45.816;3.104;2023-08-06T05:59:16;5.28;;;1.42;;
61038;SDS011;46919;45.816;3.104;2023-08-06T06:01:41;6.18;;;1.27;;
61038;SDS011;46919;45.816;3.104;2023-08-06T06:04:07;5.25;;;1.23;;
61038;SDS011;46919;45.816;3.104;2023-08-06T06:06:32;4.22;;;1.17;;
61038;SDS011;46919;45.816;3.104;2023-08-06T06:08:58;5.80;;;1.10;;
61038;SDS011;46919;45.816;3.104;2023-08-06T06:11:23;2.30;;;0.98;;
61038;SDS011;46919;45.816;3.104;2023-08-06T06:13:51;6.32;;;1.33;;
61038;SDS011;46919;45.816;3.104;2023-08-06T06:16:17;4.85;;;1.00;;
61038;SDS011;46919;45.816;3.104;2023-08-06T06:18:42;3.35;;;1.23;;
61038;SDS011;46919;45.816;3.104;2023-08-06T06:21:08;4.47;;;1.20;;
61038;SDS011;46919;45.816;3.104;2023-08-06T06:23:34;6.70;;;1.20;;
61038;SDS011;46919;45.816;3.104;2023-08-06T06:25:59;9.05;;;1.70;;
61038;SDS011;46919;45.816;3.104;2023-08-06T06:28:25;6.47;;;1.27;;
61038;SDS011;46919;45.816;3.104;2023-08-06T06:30:51;7.05;;;1.33;;
61038;SDS011;46919;45.816;3.104;2023-08-06T06:33:16;7.32;;;1.58;;
61038;SDS011;46919;45.816;3.104;2023-08-06T06:35:42;6.97;;;1.30;;
61038;SDS011;46919;45.816;3.104;2023-08-06T06:38:07;4.90;;;1.20;;
61038;SDS011;46919;45.816;3.104;2023-08-06T06:40:33;5.32;;;0.95;;
61038;SDS011;46919;45.816;3.104;2023-08-06T06:42:58;6.75;;;1.40;;
61038;SDS011;46919;45.816;3.104;2023-08-06T06:45:24;6.13;;;1.10;;
61038;SDS011;46919;45.816;3.104;2023-08-06T06:47:49;6.75;;;1.60;;
61038;SDS011;46919;45.816;3.104;2023-08-06T06:50:14;4.57;;;1.10;;
61038;SDS011;46919;45.816;3.104;2023-08-06T06:52:41;6.80;;;1.80;;
61038;SDS011;46919;45.816;3.104;2023-08-06T06:55:06;5.22;;;0.95;;
61038;SDS011;46919;45.816;3.104;2023-08-06T06:57:32;9.93;;;1.50;;
61038;SDS011;46919;45.816;3.104;2023-08-06T06:59:58;4.03;;;1.02;;
61038;SDS011;46919;45.816;3.104;2023-08-06T07:02:23;4.72;;;1.08;;
61038;SDS011;46919;45.816;3.104;2023-08-06T07:04:49;5.00;;;1.50;;
61038;SDS011;46919;45.816;3.104;2023-08-06T07:07:15;5.07;;;1.38;;
61038;SDS011;46919;45.816;3.104;2023-08-06T07:09:40;4.95;;;1.55;;
61038;SDS011;46919;45.816;3.104;2023-08-06T07:12:06;4.90;;;1.10;;
61038;SDS011;46919;45.816;3.104;2023-08-06T07:14:32;5.78;;;1.30;;
61038;SDS011;46919;45.816;3.104;2023-08-06T07:16:57;4.18;;;1.00;;
61038;SDS011;46919;45.816;3.104;2023-08-06T07:19:23;5.63;;;1.30;;
61038;SDS011;46919;45.816;3.104;2023-08-06T07:21:48;10.25;;;1.17;;
61038;SDS011;46919;45.816;3.104;2023-08-06T07:24:14;4.80;;;1.52;;
61038;SDS011;46919;45.816;3.104;2023-08-06T07:26:39;1.98;;;0.80;;
61038;SDS011;46919;45.816;3.104;2023-08-06T07:29:04;3.45;;;1.15;;
61038;SDS011;46919;45.816;3.104;2023-08-06T07:31:30;3.85;;;0.93;;
61038;SDS011;46919;45.816;3.104;2023-08-06T07:33:55;4.47;;;1.20;;
61038;SDS011;46919;45.816;3.104;2023-08-06T07:36:21;5.22;;;1.13;;
61038;SDS011;46919;45.816;3.104;2023-08-06T07:38:46;4.47;;;0.80;;
61038;SDS011;46919;45.816;3.104;2023-08-06T07:41:13;3.78;;;0.98;;
61038;SDS011;46919;45.816;3.104;2023-08-06T07:43:39;3.83;;;1.00;;
61038;SDS011;46919;45.816;3.104;2023-08-06T07:46:04;4.22;;;1.25;;
61038;SDS011;46919;45.816;3.104;2023-08-06T07:48:30;5.65;;;1.60;;
61038;SDS011;46919;45.816;3.104;2023-08-06T07:50:56;5.57;;;1.17;;
61038;SDS011;46919;45.816;3.104;2023-08-06T07:53:22;5.43;;;0.93;;
61038;SDS011;46919;45.816;3.104;2023-08-06T07:55:52;2.30;;;1.08;;
61038;SDS011;46919;45.816;3.104;2023-08-06T07:58:18;4.78;;;0.98;;
61038;SDS011;46919;45.816;3.104;2023-08-06T08:00:45;3.88;;;1.00;;
61038;SDS011;46919;45.816;3.104;2023-08-06T08:03:11;4.63;;;1.02;;
61038;SDS011;46919;45.816;3.104;2023-08-06T08:05:41;4.25;;;1.23;;
61038;SDS011;46919;45.816;3.104;2023-08-06T08:08:07;3.03;;;0.82;;
61038;SDS011;46919;45.816;3.104;2023-08-06T08:10:32;2.72;;;0.93;;
61038;SDS011;46919;45.816;3.104;2023-08-06T08:12:59;3.05;;;1.05;;
61038;SDS011;46919;45.816;3.104;2023-08-06T08:15:25;3.75;;;1.10;;
61038;SDS011;46919;45.816;3.104;2023-08-06T08:17:53;2.50;;;0.90;;
61038;SDS011;46919;45.816;3.104;2023-08-06T08:20:19;2.55;;;0.90;;
61038;SDS011;46919;45.816;3.104;2023-08-06T08:22:44;4.05;;;1.05;;
61038;SDS011;46919;45.816;3.104;2023-08-06T08:25:10;3.00;;;1.05;;
61038;SDS011;46919;45.816;3.104;2023-08-06T08:27:35;4.38;;;0.80;;
61038;SDS011;46919;45.816;3.104;2023-08-06T08:30:00;3.90;;;0.90;;
61038;SDS011;46919;45.816;3.104;2023-08-06T08:32:26;3.28;;;0.98;;
61038;SDS011;46919;45.816;3.104;2023-08-06T08:34:52;4.05;;;0.95;;
61038;SDS011;46919;45.816;3.104;2023-08-06T08:37:18;6.72;;;1.15;;
61038;SDS011;46919;45.816;3.104;2023-08-06T08:39:44;3.92;;;1.23;;
61038;SDS011;46919;45.816;3.104;2023-08-06T08:42:09;3.67;;;1.15;;
61038;SDS011;46919;45.816;3.104;2023-08-06T08:44:35;5.53;;;1.23;;
61038;SDS011;46919;45.816;3.104;2023-08-06T08:47:04;3.42;;;1.13;;
61038;SDS011;46919;45.816;3.104;2023-08-06T08:49:36;4.55;;;1.23;;
61038;SDS011;46919;45.816;3.104;2023-08-06T08:52:03;4.55;;;1.27;;
61038;SDS011;46919;45.816;3.104;2023-08-06T08:54:37;3.97;;;1.00;;
61038;SDS011;46919;45.816;3.104;2023-08-06T08:57:03;5.65;;;1.20;;
61038;SDS011;46919;45.816;3.104;2023-08-06T08:59:29;5.22;;;1.05;;
61038;SDS011;46919;45.816;3.104;2023-08-06T09:01:55;4.25;;;1.20;;
61038;SDS011;46919;45.816;3.104;2023-08-06T09:04:21;4.15;;;1.30;;
61038;SDS011;46919;45.816;3.104;2023-08-06T09:06:50;2.63;;;0.98;;
61038;SDS011;46919;45.816;3.104;2023-08-06T09:09:26;4.68;;;1.50;;
61038;SDS011;46919;45.816;3.104;2023-08-06T09:11:55;2.85;;;1.00;;
61038;SDS011;46919;45.816;3.104;2023-08-06T09:14:27;4.35;;;0.90;;
61038;SDS011;46919;45.816;3.104;2023-08-06T09:16:53;4.57;;;1.10;;
61038;SDS011;46919;45.816;3.104;2023-08-06T09:19:19;2.63;;;1.30;;
61038;SDS011;46919;45.816;3.104;2023-08-06T09:21:45;2.95;;;0.98;;
61038;SDS011;46919;45.816;3.104;2023-08-06T09:24:14;4.22;;;1.42;;
61038;SDS011;46919;45.816;3.104;2023-08-06T09:26:41;4.65;;;1.20;;
61038;SDS011;46919;45.816;3.104;2023-08-06T09:29:07;4.50;;;1.20;;
61038;SDS011;46919;45.816;3.104;2023-08-06T09:31:40;3.75;;;1.27;;
61038;SDS011;46919;45.816;3.104;2023-08-06T09:34:06;4.90;;;1.38;;
61038;SDS011;46919;45.816;3.104;2023-08-06T09:36:52;5.45;;;1.10;;
61038;SDS011;46919;45.816;3.104;2023-08-06T09:39:24;1.80;;;1.00;;
61038;SDS011;46919;45.816;3.104;2023-08-06T09:41:59;4.38;;;1.30;;
61038;SDS011;46919;45.816;3.104;2023-08-06T09:44:27;2.65;;;0.80;;
61038;SDS011;46919;45.816;3.104;2023-08-06T09:46:55;4.65;;;1.20;;
61038;SDS011;46919;45.816;3.104;2023-08-06T09:49:24;2.28;;;1.00;;
61038;SDS011;46919;45.816;3.104;2023-08-06T09:51:52;4.30;;;1.05;;
61038;SDS011;46919;45.816;3.104;2023-08-06T09:54:20;2.53;;;0.75;;
61038;SDS011;46919;45.816;3.104;2023-08-06T09:56:47;4.82;;;1.40;;
61038;SDS011;46919;45.816;3.104;2023-08-06T09:59:13;5.00;;;1.10;;
61038;SDS011;46919;45.816;3.104;2023-08-06T10:01:40;7.00;;;1.20;;
61038;SDS011;46919;45.816;3.104;2023-08-06T10:04:06;4.85;;;1.38;;
61038;SDS011;46919;45.816;3.104;2023-08-06T10:06:33;3.60;;;1.40;;
61038;SDS011;46919;45.816;3.104;2023-08-06T10:09:01;3.50;;;1.33;;
61038;SDS011;46919;45.816;3.104;2023-08-06T10:11:26;3.15;;;0.80;;
61038;SDS011;46919;45.816;3.104;2023-08-06T10:14:38;2.50;;;0.80;;
61038;SDS011;46919;45.816;3.104;2023-08-06T10:16:46;4.00;;;1.00;;
61038;SDS011;46919;45.816;3.104;2023-08-06T10:19:12;1.83;;;0.93;;
61038;SDS011;46919;45.816;3.104;2023-08-06T10:21:40;2.78;;;1.00;;
61038;SDS011;46919;45.816;3.104;2023-08-06T10:24:08;5.00;;;1.15;;
61038;SDS011;46919;45.816;3.104;2023-08-06T10:26:37;2.60;;;1.00;;
61038;SDS011;46919;45.816;3.104;2023-08-06T10:29:34;4.32;;;1.20;;
61038;SDS011;46919;45.816;3.104;2023-08-06T10:32:00;4.95;;;2.40;;
61038;SDS011;46919;45.816;3.104;2023-08-06T10:34:37;11.43;;;5.15;;
61038;SDS011;46919;45.816;3.104;2023-08-06T10:37:21;6.30;;;2.67;;
61038;SDS011;46919;45.816;3.104;2023-08-06T10:39:51;4.25;;;1.20;;
61038;SDS011;46919;45.816;3.104;2023-08-06T10:42:35;5.05;;;1.30;;
61038;SDS011;46919;45.816;3.104;2023-08-06T10:45:17;5.25;;;1.20;;
61038;SDS011;46919;45.816;3.104;2023-08-06T10:47:44;5.77;;;1.40;;
61038;SDS011;46919;45.816;3.104;2023-08-06T10:50:11;2.88;;;1.08;;
61038;SDS011;46919;45.816;3.104;2023-08-06T10:52:47;4.32;;;1.20;;
61038;SDS011;46919;45.816;3.104;2023-08-06T10:55:13;5.60;;;1.10;;
61038;SDS011;46919;45.816;3.104;2023-08-06T10:57:39;2.80;;;0.90;;
61038;SDS011;46919;45.816;3.104;2023-08-06T11:00:05;3.25;;;1.05;;
61038;SDS011;46919;45.816;3.104;2023-08-06T11:02:33;3.30;;;0.80;;
61038;SDS011;46919;45.816;3.104;2023-08-06T11:05:04;1.90;;;0.80;;
61038;SDS011;46919;45.816;3.104;2023-08-06T11:07:33;1.63;;;1.10;;
61038;SDS011;46919;45.816;3.104;2023-08-06T11:10:06;2.60;;;1.00;;
61038;SDS011;46919;45.816;3.104;2023-08-06T11:12:33;2.45;;;0.90;;
61038;SDS011;46919;45.816;3.104;2023-08-06T11:14:59;3.08;;;0.95;;
61038;SDS011;46919;45.816;3.104;2023-08-06T11:17:29;2.13;;;0.80;;
61038;SDS011;46919;45.816;3.104;2023-08-06T11:19:56;2.30;;;0.80;;
61038;SDS011;46919;45.816;3.104;2023-08-06T11:22:24;3.72;;;1.00;;
61038;SDS011;46919;45.816;3.104;2023-08-06T11:24:50;2.58;;;1.17;;
61038;SDS011;46919;45.816;3.104;2023-08-06T11:27:15;1.80;;;0.90;;
61038;SDS011;46919;45.816;3.104;2023-08-06T11:29:42;3.63;;;1.50;;
61038;SDS011;46919;45.816;3.104;2023-08-06T11:32:11;2.65;;;0.95;;
61038;SDS011;46919;45.816;3.104;2023-08-06T11:34:37;4.07;;;2.28;;
61038;SDS011;46919;45.816;3.104;2023-08-06T11:37:04;3.22;;;0.70;;
61038;SDS011;46919;45.816;3.104;2023-08-06T11:39:34;3.17;;;1.25;;
61038;SDS011;46919;45.816;3.104;2023-08-06T11:42:00;2.80;;;0.90;;
61038;SDS011;46919;45.816;3.104;2023-08-06T11:44:29;2.53;;;0.80;;
61038;SDS011;46919;45.816;3.104;2023-08-06T11:46:57;2.70;;;0.90;;
61038;SDS011;46919;45.816;3.104;2023-08-06T11:49:40;2.50;;;1.08;;
61038;SDS011;46919;45.816;3.104;2023-08-06T11:52:19;2.95;;;0.80;;
61038;SDS011;46919;45.816;3.104;2023-08-06T11:54:46;2.58;;;0.90;;
61038;SDS011;46919;45.816;3.104;2023-08-06T11:57:13;2.85;;;1.40;;
61038;SDS011;46919;45.816;3.104;2023-08-06T11:59:40;3.88;;;0.95;;
61038;SDS011;46919;45.816;3.104;2023-08-06T12:02:08;3.63;;;0.80;;
61038;SDS011;46919;45.816;3.104;2023-08-06T12:07:38;3.05;;;0.80;;
61038;SDS011;46919;45.816;3.104;2023-08-06T12:10:05;4.32;;;1.20;;
61038;SDS011;46919;45.816;3.104;2023-08-06T12:12:31;3.13;;;0.80;;
61038;SDS011;46919;45.816;3.104;2023-08-06T12:14:56;2.83;;;1.10;;
61038;SDS011;46919;45.816;3.104;2023-08-06T12:17:22;5.28;;;1.27;;
61038;SDS011;46919;45.816;3.104;2023-08-06T12:19:48;2.47;;;0.70;;
61038;SDS011;46919;45.816;3.104;2023-08-06T12:22:14;3.13;;;1.00;;
61038;SDS011;46919;45.816;3.104;2023-08-06T12:24:41;2.63;;;0.95;;
61038;SDS011;46919;45.816;3.104;2023-08-06T12:27:07;4.15;;;1.00;;
61038;SDS011;46919;45.816;3.104;2023-08-06T12:29:32;2.47;;;0.75;;
61038;SDS011;46919;45.816;3.104;2023-08-06T12:31:58;2.17;;;0.80;;
61038;SDS011;46919;45.816;3.104;2023-08-06T12:34:23;3.20;;;1.15;;
61038;SDS011;46919;45.816;3.104;2023-08-06T12:36:48;1.20;;;0.80;;
61038;SDS011;46919;45.816;3.104;2023-08-06T12:39:14;1.88;;;1.00;;
61038;SDS011;46919;45.816;3.104;2023-08-06T12:41:39;4.05;;;1.33;;
61038;SDS011;46919;45.816;3.104;2023-08-06T12:44:05;2.63;;;1.10;;
61038;SDS011;46919;45.816;3.104;2023-08-06T12:46:30;2.78;;;1.00;;
61038;SDS011;46919;45.816;3.104;2023-08-06T12:48:56;2.05;;;0.90;;
61038;SDS011;46919;45.816;3.104;2023-08-06T12:51:22;2.30;;;1.02;;
61038;SDS011;46919;45.816;3.104;2023-08-06T12:53:49;2.08;;;0.90;;
61038;SDS011;46919;45.816;3.104;2023-08-06T12:56:14;1.35;;;0.90;;
61038;SDS011;46919;45.816;3.104;2023-08-06T12:58:39;1.38;;;0.75;;
61038;SDS011;46919;45.816;3.104;2023-08-06T13:01:05;3.10;;;1.05;;
61038;SDS011;46919;45.816;3.104;2023-08-06T13:03:31;4.20;;;1.30;;
61038;SDS011;46919;45.816;3.104;2023-08-06T13:05:56;2.65;;;0.70;;
61038;SDS011;46919;45.816;3.104;2023-08-06T13:08:23;3.05;;;0.90;;
61038;SDS011;46919;45.816;3.104;2023-08-06T13:10:48;2.53;;;0.70;;
61038;SDS011;46919;45.816;3.104;2023-08-06T13:13:14;2.47;;;0.98;;
61038;SDS011;46919;45.816;3.104;2023-08-06T13:15:39;2.92;;;0.75;;
61038;SDS011;46919;45.816;3.104;2023-08-06T13:18:05;1.40;;;0.70;;
61038;SDS011;46919;45.816;3.104;2023-08-06T13:20:31;2.28;;;0.68;;
61038;SDS011;46919;45.816;3.104;2023-08-06T13:22:57;2.60;;;0.70;;
61038;SDS011;46919;45.816;3.104;2023-08-06T13:25:24;2.22;;;0.82;;
61038;SDS011;46919;45.816;3.104;2023-08-06T13:27:50;1.75;;;0.80;;
61038;SDS011;46919;45.816;3.104;2023-08-06T13:30:15;3.13;;;0.80;;
61038;SDS011;46919;45.816;3.104;2023-08-06T13:32:43;3.35;;;0.93;;
61038;SDS011;46919;45.816;3.104;2023-08-06T13:35:08;4.18;;;1.48;;
61038;SDS011;46919;45.816;3.104;2023-08-06T13:37:34;1.98;;;0.95;;
61038;SDS011;46919;45.816;3.104;2023-08-06T13:39:59;1.80;;;0.80;;
61038;SDS011;46919;45.816;3.104;2023-08-06T13:42:24;1.52;;;0.65;;
61038;SDS011;46919;45.816;3.104;2023-08-06T13:44:50;5.15;;;0.73;;
61038;SDS011;46919;45.816;3.104;2023-08-06T13:47:15;1.23;;;0.88;;
61038;SDS011;46919;45.816;3.104;2023-08-06T13:49:40;2.03;;;0.90;;
61038;SDS011;46919;45.816;3.104;2023-08-06T13:52:06;2.00;;;0.95;;
61038;SDS011;46919;45.816;3.104;2023-08-06T13:54:31;2.70;;;0.80;;
61038;SDS011;46919;45.816;3.104;2023-08-06T13:56:57;3.22;;;0.93;;
61038;SDS011;46919;45.816;3.104;2023-08-06T13:59:22;2.38;;;0.90;;
61038;SDS011;46919;45.816;3.104;2023-08-06T14:01:49;3.45;;;0.90;;
61038;SDS011;46919;45.816;3.104;2023-08-06T14:04:15;2.05;;;0.90;;
61038;SDS011;46919;45.816;3.104;2023-08-06T14:06:41;1.95;;;0.75;;
61038;SDS011;46919;45.816;3.104;2023-08-06T14:09:06;2.17;;;0.85;;
61038;SDS011;46919;45.816;3.104;2023-08-06T14:11:32;2.83;;;1.13;;
61038;SDS011;46919;45.816;3.104;2023-08-06T14:13:58;2.30;;;0.88;;
61038;SDS011;46919;45.816;3.104;2023-08-06T14:16:25;2.03;;;0.88;;
61038;SDS011;46919;45.816;3.104;2023-08-06T14:18:50;2.45;;;1.00;;
61038;SDS011;46919;45.816;3.104;2023-08-06T14:21:16;2.33;;;1.10;;
61038;SDS011;46919;45.816;3.104;2023-08-06T14:23:41;2.72;;;1.15;;
61038;SDS011;46919;45.816;3.104;2023-08-06T14:26:07;2.25;;;0.90;;
61038;SDS011;46919;45.816;3.104;2023-08-06T14:28:33;3.50;;;0.82;;
61038;SDS011;46919;45.816;3.104;2023-08-06T14:30:58;4.88;;;0.95;;
61038;SDS011;46919;45.816;3.104;2023-08-06T14:33:24;3.55;;;1.00;;
61038;SDS011;46919;45.816;3.104;2023-08-06T14:35:49;2.55;;;0.88;;
61038;SDS011;46919;45.816;3.104;2023-08-06T14:38:14;2.53;;;0.90;;
61038;SDS011;46919;45.816;3.104;2023-08-06T14:40:40;2.53;;;0.80;;
61038;SDS011;46919;45.816;3.104;2023-08-06T14:43:05;2.22;;;1.00;;
61038;SDS011;46919;45.816;3.104;2023-08-06T14:45:31;1.77;;;0.70;;
61038;SDS011;46919;45.816;3.104;2023-08-06T14:47:57;3.03;;;1.00;;
61038;SDS011;46919;45.816;3.104;2023-08-06T14:50:22;3.92;;;1.00;;
61038;SDS011;46919;45.816;3.104;2023-08-06T14:52:48;3.10;;;0.98;;